createdAt,value
2018-02-08T00:00:00.572Z,114.80
2018-02-08T00:02:28.049Z,120.43
2018-02-08T00:04:55.584Z,109.07
2018-02-08T00:07:23.064Z,112.88
2018-02-08T00:09:51.300Z,112.15
2018-02-08T00:12:18.768Z,119.93
2018-02-08T00:14:46.358Z,102.12
2018-02-08T00:17:14.603Z,111.03
2018-02-08T00:19:42.926Z,104.75
2018-02-08T00:22:10.392Z,118.82
2018-02-08T00:24:37.865Z,101.80
2018-02-08T00:27:05.349Z,105.87
2018-02-08T00:29:33.124Z,108.45
2018-02-08T00:32:00.593Z,120.25
2018-02-08T00:34:28.192Z,110.88
2018-02-08T00:36:55.724Z,107.82
2018-02-08T00:39:23.160Z,111.25
2018-02-08T00:41:50.628Z,106.07
2018-02-08T00:44:18.862Z,97.03
2018-02-08T00:46:46.336Z,112.28
2018-02-08T00:49:13.804Z,109.60
2018-02-08T00:51:41.291Z,110.30
2018-02-08T00:54:08.822Z,112.57
2018-02-08T00:56:36.304Z,106.18
2018-02-08T00:59:03.836Z,112.90
2018-02-08T01:01:31.338Z,120.35
2018-02-08T01:03:58.855Z,112.82
2018-02-08T01:06:26.440Z,100.00
2018-02-08T01:08:54.677Z,98.78
2018-02-08T01:11:22.156Z,115.12
2018-02-08T01:13:50.394Z,113.88
2018-02-08T01:16:17.860Z,113.85
2018-02-08T01:18:46.915Z,104.75
2018-02-08T01:21:14.416Z,113.28
2018-02-08T01:23:41.895Z,120.93
2018-02-08T01:26:10.153Z,101.80
2018-02-08T01:28:37.640Z,103.90
2018-02-08T01:31:05.108Z,103.55
2018-02-08T01:33:32.578Z,92.45
2018-02-08T01:36:00.086Z,104.40
2018-02-08T01:38:27.573Z,114.82
2018-02-08T01:40:55.040Z,114.00
2018-02-08T01:43:22.509Z,106.93
2018-02-08T01:45:49.976Z,103.72
2018-02-08T01:48:17.475Z,108.18
2018-02-08T01:50:45.032Z,95.62
2018-02-08T01:53:12.503Z,101.65
2018-02-08T01:55:40.733Z,98.95
2018-02-08T01:58:08.434Z,106.18
2018-02-08T02:00:35.972Z,114.10
2018-02-08T02:03:03.487Z,120.22
2018-02-08T02:05:30.956Z,103.38
2018-02-08T02:07:58.430Z,116.50
2018-02-08T02:10:25.909Z,128.00
2018-02-08T02:12:53.372Z,106.30
2018-02-08T02:15:21.637Z,104.70
2018-02-08T02:17:49.208Z,108.45
2018-02-08T02:20:16.668Z,99.28
2018-02-08T02:22:44.900Z,108.32
2018-02-08T02:25:12.480Z,106.25
2018-02-08T02:27:39.959Z,115.32
2018-02-08T02:30:07.518Z,122.22
2018-02-08T02:32:35.789Z,111.28
2018-02-08T02:35:04.156Z,104.70
2018-02-08T02:37:31.623Z,113.32
2018-02-08T02:39:59.168Z,124.28
2018-02-08T02:42:26.653Z,106.97
2018-02-08T02:44:54.892Z,104.32
2018-02-08T02:47:22.360Z,120.47
2018-02-08T02:49:49.841Z,119.40
2018-02-08T02:52:18.088Z,116.88
2018-02-08T02:54:45.628Z,112.97
2018-02-08T02:57:13.099Z,107.45
2018-02-08T02:59:40.566Z,114.95
2018-02-08T03:02:09.547Z,119.00
2018-02-08T03:04:37.015Z,106.45
2018-02-08T03:07:04.486Z,104.63
2018-02-08T03:09:32.727Z,111.65
2018-02-08T03:12:00.303Z,107.95
2018-02-08T03:14:27.767Z,98.82
2018-02-08T03:16:55.251Z,105.75
2018-02-08T03:19:22.887Z,103.25
2018-02-08T03:21:50.358Z,98.68
2018-02-08T03:24:18.592Z,114.35
2018-02-08T03:26:46.073Z,102.15
2018-02-08T03:29:14.300Z,101.20
2018-02-08T03:31:41.793Z,105.75
2018-02-08T03:34:09.266Z,92.18
2018-02-08T03:36:36.815Z,111.70
2018-02-08T03:39:04.304Z,100.78
2018-02-08T03:41:32.540Z,101.05
2018-02-08T03:44:00.009Z,93.18
2018-02-08T03:46:27.471Z,104.97
2018-02-08T03:48:54.944Z,107.43
2018-02-08T03:51:23.188Z,109.93
2018-02-08T03:53:52.182Z,105.03
2018-02-08T03:56:20.412Z,124.03
2018-02-08T03:58:47.886Z,101.40
2018-02-08T04:01:15.377Z,89.28
2018-02-08T04:03:42.843Z,97.78
2018-02-08T04:06:10.308Z,98.30
2018-02-08T04:08:38.562Z,96.57
2018-02-08T04:11:06.026Z,109.10
2018-02-08T04:13:33.492Z,99.85
2018-02-08T04:16:01.734Z,104.10
2018-02-08T04:18:29.234Z,131.27
2018-02-08T04:20:57.487Z,109.50
2018-02-08T04:23:24.977Z,102.97
2018-02-08T04:25:52.453Z,106.18
2018-02-08T04:28:19.925Z,93.40
2018-02-08T04:30:47.392Z,93.78
2018-02-08T04:33:14.887Z,112.12
2018-02-08T04:35:43.150Z,107.68
2018-02-08T04:38:17.625Z,88.00
2018-02-08T04:40:57.011Z,114.95
2018-02-08T04:46:59.274Z,95.85
2018-02-08T04:49:26.760Z,105.87
2018-02-08T04:51:54.411Z,114.82
2018-02-08T04:54:21.881Z,92.93
2018-02-08T04:56:49.443Z,114.20
2018-02-08T04:59:16.992Z,110.93
2018-02-08T05:01:44.469Z,104.45
2018-02-08T05:04:12.774Z,100.18
2018-02-08T05:06:40.271Z,95.82
2018-02-08T05:09:07.739Z,105.45
2018-02-08T05:11:35.287Z,106.15
2018-02-08T05:14:02.762Z,103.25
2018-02-08T05:16:31.021Z,100.40
2018-02-08T05:18:58.496Z,101.15
2018-02-08T05:21:26.054Z,101.50
2018-02-08T05:23:54.374Z,112.18
2018-02-08T05:26:21.836Z,103.18
2018-02-08T05:28:49.336Z,107.90
2018-02-08T05:31:18.306Z,115.32
2018-02-08T05:33:45.764Z,96.97
2018-02-08T05:36:13.227Z,92.55
2018-02-08T05:38:40.688Z,92.37
2018-02-08T05:41:08.168Z,102.72
2018-02-08T05:43:36.419Z,107.10
2018-02-08T05:46:03.996Z,109.80
2018-02-08T05:48:31.555Z,97.93
2018-02-08T05:50:59.829Z,103.05
2018-02-08T05:53:27.302Z,97.43
2018-02-08T05:55:55.648Z,99.37
2018-02-08T05:58:23.111Z,99.65
2018-02-08T06:00:50.580Z,84.65
2018-02-08T06:03:18.818Z,93.10
2018-02-08T06:05:46.284Z,107.03
2018-02-08T06:08:13.856Z,98.57
2018-02-08T06:10:41.432Z,90.07
2018-02-08T06:13:09.080Z,99.80
2018-02-08T06:15:36.650Z,97.93
2018-02-08T06:18:04.166Z,90.95
2018-02-08T06:20:32.362Z,101.85
2018-02-08T06:22:59.831Z,98.07
2018-02-08T06:25:27.297Z,92.82
2018-02-08T06:27:54.776Z,114.80
2018-02-08T06:30:23.018Z,93.47
2018-02-08T06:32:50.591Z,100.28
2018-02-08T06:35:18.821Z,88.43
2018-02-08T06:37:46.291Z,96.32
2018-02-08T06:40:13.754Z,93.37
2018-02-08T06:42:41.224Z,102.55
2018-02-08T06:45:08.695Z,92.78
2018-02-08T06:47:37.061Z,107.15
2018-02-08T06:50:04.608Z,91.78
2018-02-08T06:52:32.165Z,98.87
2018-02-08T06:54:59.641Z,90.53
2018-02-08T06:57:27.139Z,104.75
2018-02-08T06:59:54.656Z,116.53
2018-02-08T07:02:22.126Z,90.07
2018-02-08T07:04:50.361Z,108.20
2018-02-08T07:07:17.929Z,92.57
2018-02-08T07:09:45.447Z,101.43
2018-02-08T07:12:12.944Z,101.10
2018-02-08T07:14:40.504Z,89.90
2018-02-08T07:17:07.965Z,99.30
2018-02-08T07:19:36.297Z,99.70
2018-02-08T07:22:03.762Z,105.90
2018-02-08T07:24:31.237Z,118.37
2018-02-08T07:26:58.706Z,97.93
2018-02-08T07:29:26.202Z,116.47
2018-02-08T07:31:54.447Z,102.82
2018-02-08T07:34:21.906Z,110.18
2018-02-08T07:36:49.425Z,114.50
2018-02-08T07:39:17.608Z,91.95
2018-02-08T07:41:45.082Z,105.60
2018-02-08T07:44:12.550Z,104.03
2018-02-08T07:46:40.033Z,94.30
2018-02-08T07:49:08.276Z,108.40
2018-02-08T07:51:35.755Z,104.87
2018-02-08T07:54:04.000Z,100.62
2018-02-08T07:56:31.532Z,113.12
2018-02-08T07:58:59.008Z,116.68
2018-02-08T08:01:26.538Z,89.28
2018-02-08T08:03:54.185Z,97.20
2018-02-08T08:06:21.707Z,106.85
2018-02-08T08:08:49.870Z,94.20
2018-02-08T08:11:17.432Z,91.45
2018-02-08T08:13:45.092Z,97.45
2018-02-08T08:16:13.343Z,99.47
2018-02-08T08:18:40.963Z,104.32
2018-02-08T08:21:09.194Z,92.72
2018-02-08T08:23:36.656Z,105.87
2018-02-08T08:26:04.241Z,103.05
2018-02-08T08:28:31.701Z,85.38
2018-02-08T08:30:59.962Z,105.20
2018-02-08T08:33:27.423Z,92.88
2018-02-08T08:35:55.658Z,89.95
2018-02-08T08:38:23.135Z,94.07
2018-02-08T08:40:51.222Z,88.82
2018-02-08T08:43:18.775Z,79.80
2018-02-08T08:45:46.240Z,97.88
2018-02-08T08:48:13.703Z,85.70
2018-02-08T08:50:41.939Z,94.80
2018-02-08T08:53:09.420Z,87.85
2018-02-08T08:55:36.891Z,88.22
2018-02-08T08:58:04.359Z,82.12
2018-02-08T09:00:32.604Z,84.35
2018-02-08T09:03:00.881Z,88.20
2018-02-08T09:05:28.354Z,87.70
2018-02-08T09:07:56.735Z,96.78
2018-02-08T09:10:24.973Z,78.60
2018-02-08T09:12:52.469Z,81.15
2018-02-08T09:15:19.933Z,77.50
2018-02-08T09:17:48.171Z,86.40
2018-02-08T09:20:15.646Z,83.43
2018-02-08T09:22:43.109Z,78.68
2018-02-08T09:25:10.597Z,81.70
2018-02-08T09:27:38.070Z,78.03
2018-02-08T09:30:05.542Z,91.22
2018-02-08T09:32:33.017Z,79.87
2018-02-08T09:35:00.497Z,83.25
2018-02-08T09:37:27.952Z,97.82
2018-02-08T09:39:56.199Z,71.10
2018-02-08T09:42:23.669Z,80.80
2018-02-08T09:44:52.650Z,68.50
2018-02-08T09:47:20.113Z,75.20
2018-02-08T09:49:47.588Z,70.72
2018-02-08T09:52:15.063Z,74.53
2018-02-08T09:54:42.536Z,66.68
2018-02-08T09:57:10.013Z,67.93
2018-02-08T09:59:37.485Z,61.53
2018-02-08T10:02:04.944Z,53.87
2018-02-08T10:04:32.633Z,62.95
2018-02-08T10:07:00.291Z,53.92
2018-02-08T10:09:27.765Z,58.28
2018-02-08T10:11:56.026Z,62.65
2018-02-08T10:14:23.476Z,50.25
2018-02-08T10:16:50.945Z,53.83
2018-02-08T10:19:18.409Z,52.55
2018-02-08T10:21:46.674Z,54.22
2018-02-08T10:24:14.124Z,50.53
2018-02-08T10:26:41.582Z,49.42
2018-02-08T10:29:09.066Z,37.88
2018-02-08T10:31:36.539Z,46.13
2018-02-08T10:34:04.003Z,46.78
2018-02-08T10:36:31.522Z,39.30
2018-02-08T10:38:59.776Z,45.38
2018-02-08T10:41:27.258Z,53.35
2018-02-08T10:43:55.572Z,43.15
2018-02-08T10:46:23.058Z,48.50
2018-02-08T10:48:50.739Z,41.47
2018-02-08T10:51:19.015Z,31.13
2018-02-08T10:53:47.278Z,37.10
2018-02-08T10:56:14.744Z,45.33
2018-02-08T10:58:42.219Z,39.90
2018-02-08T11:01:10.461Z,50.10
2018-02-08T11:03:37.935Z,51.03
2018-02-08T11:06:05.401Z,43.50
2018-02-08T11:08:33.665Z,42.97
2018-02-08T11:11:01.135Z,41.93
2018-02-08T11:13:29.405Z,35.90
2018-02-08T11:15:57.640Z,39.43
2018-02-08T11:18:25.119Z,42.57
2018-02-08T11:20:52.592Z,47.93
2018-02-08T11:23:20.869Z,45.87
2018-02-08T11:25:49.126Z,53.28
2018-02-08T11:28:16.596Z,46.97
2018-02-08T11:30:44.064Z,45.35
2018-02-08T11:33:11.543Z,48.45
2018-02-08T11:35:39.047Z,43.00
2018-02-08T11:38:06.508Z,47.63
2018-02-08T11:40:33.998Z,46.73
2018-02-08T11:43:02.271Z,43.30
2018-02-08T11:45:30.514Z,41.23
2018-02-08T11:47:58.017Z,47.80
2018-02-08T11:50:25.539Z,37.63
2018-02-08T11:52:53.033Z,36.80
2018-02-08T11:55:20.500Z,38.50
2018-02-08T11:57:48.079Z,49.00
2018-02-08T12:00:15.572Z,39.77
2018-02-08T12:02:43.079Z,51.53
2018-02-08T12:05:10.580Z,42.97
2018-02-08T12:07:38.144Z,48.83
2018-02-08T12:10:05.700Z,41.93
2018-02-08T12:12:33.183Z,38.37
2018-02-08T12:15:01.451Z,42.83
2018-02-08T12:17:28.997Z,43.67
2018-02-08T12:19:56.469Z,38.03
2018-02-08T12:22:24.732Z,42.53
2018-02-08T12:24:53.729Z,41.07
2018-02-08T12:27:21.202Z,44.87
2018-02-08T12:29:49.445Z,47.30
2018-02-08T12:32:17.008Z,41.97
2018-02-08T12:34:44.575Z,45.87
2018-02-08T12:37:12.107Z,43.67
2018-02-08T12:39:39.588Z,49.67
2018-02-08T12:42:07.828Z,47.50
2018-02-08T12:44:35.313Z,48.33
2018-02-08T12:47:02.857Z,47.37
2018-02-08T12:49:30.317Z,50.57
2018-02-08T12:51:57.808Z,55.37
2018-02-08T12:54:25.277Z,55.17
2018-02-08T12:56:52.835Z,50.20
2018-02-08T12:59:21.069Z,49.23
2018-02-08T13:01:48.644Z,50.40
2018-02-08T13:04:16.897Z,48.08
2018-02-08T13:06:44.367Z,49.03
2018-02-08T13:09:11.895Z,52.40
2018-02-08T13:11:39.371Z,47.83
2018-02-08T13:14:06.855Z,54.33
2018-02-08T13:16:35.176Z,45.85
2018-02-08T13:19:02.692Z,53.17
2018-02-08T13:21:30.164Z,53.28
2018-02-08T13:23:58.421Z,54.78
2018-02-08T13:26:25.892Z,51.15
2018-02-08T13:28:54.148Z,55.72
2018-02-08T13:31:37.427Z,56.55
2018-02-08T13:34:04.898Z,51.28
2018-02-08T13:36:32.408Z,51.15
2018-02-08T13:39:00.695Z,46.08
2018-02-08T13:41:28.110Z,52.97
2018-02-08T13:43:55.590Z,49.28
2018-02-08T13:46:23.815Z,49.78
2018-02-08T13:49:01.971Z,50.05
2018-02-08T13:51:32.212Z,56.72
2018-02-08T13:54:02.332Z,58.70
2018-02-08T13:56:43.685Z,55.88
2018-02-08T13:59:12.693Z,53.13
2018-02-08T14:01:44.394Z,52.25
2018-02-08T14:04:11.869Z,49.47
2018-02-08T14:06:39.341Z,51.30
2018-02-08T14:09:06.997Z,57.08
2018-02-08T14:11:34.455Z,60.67
2018-02-08T14:14:02.147Z,48.17
2018-02-08T14:16:31.184Z,47.60
2018-02-08T14:18:58.653Z,46.50
2018-02-08T14:21:26.112Z,51.45
2018-02-08T14:23:53.572Z,51.05
2018-02-08T14:26:21.032Z,48.15
2018-02-08T14:28:48.600Z,51.35
2018-02-08T14:31:16.160Z,52.28
2018-02-08T14:33:43.715Z,48.70
2018-02-08T14:36:11.173Z,53.47
2018-02-08T14:38:38.690Z,44.15
2018-02-08T14:41:06.360Z,43.28
2018-02-08T14:43:35.153Z,40.78
2018-02-08T14:46:02.731Z,44.88
2018-02-08T14:48:30.400Z,41.83
2018-02-08T14:50:58.019Z,42.15
2018-02-08T14:53:25.476Z,41.35
2018-02-08T14:55:53.077Z,54.15
2018-02-08T14:58:20.641Z,46.15
2018-02-08T15:00:48.108Z,38.05
2018-02-08T15:03:15.644Z,43.38
2018-02-08T15:05:43.159Z,41.08
2018-02-08T15:08:10.615Z,40.12
2018-02-08T15:10:38.088Z,44.08
2018-02-08T15:13:05.588Z,41.58
2018-02-08T15:15:33.172Z,43.10
2018-02-08T15:18:00.599Z,46.78
2018-02-08T15:20:28.156Z,40.63
2018-02-08T15:22:55.616Z,43.47
2018-02-08T15:25:23.186Z,47.90
2018-02-08T15:27:50.640Z,48.53
2018-02-08T15:30:18.119Z,35.22
2018-02-08T15:32:46.363Z,41.00
2018-02-08T15:35:13.881Z,41.55
2018-02-08T15:37:42.076Z,47.90
2018-02-08T15:40:09.559Z,51.35
2018-02-08T15:42:37.030Z,45.05
2018-02-08T15:45:05.261Z,41.90
2018-02-08T15:47:32.749Z,38.15
2018-02-08T15:50:00.205Z,41.92
2018-02-08T15:52:27.777Z,42.97
2018-02-08T15:54:56.057Z,46.05
2018-02-08T15:57:24.475Z,44.45
2018-02-08T15:59:51.945Z,42.60
2018-02-08T16:02:19.419Z,43.83
2018-02-08T16:04:46.881Z,41.80
2018-02-08T16:07:14.358Z,40.30
2018-02-08T16:09:42.616Z,50.38
2018-02-08T16:12:10.094Z,40.83
2018-02-08T16:14:38.357Z,41.03
2018-02-08T16:17:05.827Z,37.65
2018-02-08T16:19:34.065Z,36.60
2018-02-08T16:22:01.627Z,47.50
2018-02-08T16:24:29.192Z,47.40
2018-02-08T16:26:56.689Z,44.70
2018-02-08T16:29:24.162Z,47.95
2018-02-08T16:31:51.621Z,46.42
2018-02-08T16:34:19.144Z,51.17
2018-02-08T16:36:47.363Z,47.67
2018-02-08T16:39:14.828Z,50.40
2018-02-08T16:41:42.296Z,48.38
2018-02-08T16:44:09.818Z,47.25
2018-02-08T16:46:37.281Z,53.78
2018-02-08T16:49:04.892Z,48.22
2018-02-08T16:51:32.364Z,57.95
2018-02-08T16:53:59.833Z,49.63
2018-02-08T16:56:28.101Z,44.60
2018-02-08T16:58:55.565Z,47.08
2018-02-08T17:01:23.815Z,56.20
2018-02-08T17:03:51.298Z,56.40
2018-02-08T17:06:19.535Z,52.33
2018-02-08T17:08:46.988Z,56.85
2018-02-08T17:11:15.220Z,45.30
2018-02-08T17:13:42.694Z,50.80
2018-02-08T17:16:10.147Z,53.05
2018-02-08T17:18:37.632Z,47.60
2018-02-08T17:21:05.087Z,46.80
2018-02-08T17:23:32.662Z,55.67
2018-02-08T17:26:00.232Z,50.85
2018-02-08T17:28:27.688Z,53.87
2018-02-08T17:30:55.916Z,44.97
2018-02-08T17:33:23.499Z,53.67
2018-02-08T17:35:50.964Z,52.30
2018-02-08T17:38:18.545Z,51.17
2018-02-08T17:40:46.773Z,50.58
2018-02-08T17:43:14.267Z,65.12
2018-02-08T17:45:41.776Z,60.38
2018-02-08T17:48:09.305Z,54.47
2018-02-08T17:50:37.521Z,49.08
2018-02-08T17:53:05.004Z,58.25
2018-02-08T17:55:32.588Z,56.33
2018-02-08T17:58:00.913Z,53.65
2018-02-08T18:00:28.431Z,58.28
2018-02-08T18:02:55.966Z,53.20
2018-02-08T18:05:23.507Z,49.97
2018-02-08T18:07:50.969Z,51.53
2018-02-08T18:10:18.448Z,53.65
2018-02-08T18:12:47.634Z,55.38
2018-02-08T18:15:15.178Z,51.80
2018-02-08T18:17:42.678Z,52.72
2018-02-08T18:20:10.199Z,47.70
2018-02-08T18:22:37.673Z,65.35
2018-02-08T18:25:05.890Z,61.70
2018-02-08T18:27:33.384Z,55.30
2018-02-08T18:30:00.942Z,47.40
2018-02-08T18:32:28.413Z,50.78
2018-02-08T18:34:55.886Z,55.33
2018-02-08T18:37:24.130Z,57.95
2018-02-08T18:39:51.626Z,50.90
2018-02-08T18:42:19.865Z,64.35
2018-02-08T18:44:47.333Z,55.55
2018-02-08T18:47:14.802Z,50.17
2018-02-08T18:49:43.048Z,59.70
2018-02-08T18:52:10.540Z,54.05
2018-02-08T18:54:38.045Z,51.58
2018-02-08T18:57:05.517Z,57.53
2018-02-08T18:59:33.007Z,61.60
2018-02-08T19:02:01.261Z,52.17
2018-02-08T19:04:28.718Z,56.83
2018-02-08T19:06:56.187Z,64.43
2018-02-08T19:09:23.728Z,54.22
2018-02-08T19:11:51.200Z,61.97
2018-02-08T19:14:18.762Z,48.22
2018-02-08T19:16:46.254Z,51.08
2018-02-08T19:19:13.813Z,58.17
2018-02-08T19:21:41.311Z,60.45
2018-02-08T19:24:08.779Z,56.95
2018-02-08T19:26:36.294Z,52.92
2018-02-08T19:29:04.504Z,52.92
2018-02-08T19:31:31.980Z,61.63
2018-02-08T19:33:59.465Z,57.78
2018-02-08T19:36:26.918Z,54.17
2018-02-08T19:38:54.393Z,57.75
2018-02-08T19:41:22.007Z,47.17
2018-02-08T19:43:49.483Z,59.20
2018-02-08T19:46:17.705Z,59.15
2018-02-08T19:48:45.190Z,59.45
2018-02-08T19:51:12.640Z,52.40
2018-02-08T19:53:40.117Z,54.72
2018-02-08T19:56:07.821Z,52.92
2018-02-08T19:58:35.288Z,59.35
2018-02-08T20:01:02.752Z,52.00
2018-02-08T20:03:30.231Z,63.90
2018-02-08T20:05:57.782Z,56.97
2018-02-08T20:08:25.248Z,51.75
2018-02-08T20:10:53.308Z,53.65
2018-02-08T20:13:21.049Z,63.03
2018-02-08T20:15:48.544Z,56.58
2018-02-08T20:18:16.016Z,49.10
2018-02-08T20:20:44.264Z,67.55
2018-02-08T20:23:11.735Z,60.83
2018-02-08T20:25:44.123Z,57.30
2018-02-08T20:28:11.596Z,67.10
2018-02-08T20:30:39.069Z,64.28
2018-02-08T20:33:06.538Z,66.43
2018-02-08T20:35:34.003Z,65.50
2018-02-08T20:38:01.482Z,59.83
2018-02-08T20:40:29.383Z,58.13
2018-02-08T20:46:01.249Z,53.25
2018-02-08T20:48:29.501Z,68.22
2018-02-08T20:50:56.972Z,64.03
2018-02-08T20:53:24.451Z,62.22
2018-02-08T20:55:52.815Z,62.28
2018-02-08T20:58:20.235Z,58.63
2018-02-08T21:00:47.723Z,64.57
2018-02-08T21:03:15.277Z,66.75
2018-02-08T21:05:42.924Z,62.45
2018-02-08T21:08:10.397Z,53.08
2018-02-08T21:10:37.944Z,75.07
2018-02-08T21:13:05.508Z,68.95
2018-02-08T21:15:33.015Z,61.37
2018-02-08T21:18:00.522Z,66.22
2018-02-08T21:20:28.081Z,65.18
2018-02-08T21:22:55.562Z,66.22
2018-02-08T21:25:23.783Z,72.87
2018-02-08T21:27:51.270Z,78.75
2018-02-08T21:30:18.756Z,72.60
2018-02-08T21:32:46.996Z,67.97
2018-02-08T21:35:14.455Z,79.25
2018-02-08T21:37:42.012Z,66.87
2018-02-08T21:40:09.480Z,73.82
2018-02-08T21:42:37.032Z,93.50
2018-02-08T21:45:04.536Z,78.78
2018-02-08T21:47:32.000Z,73.87
2018-02-08T21:49:59.478Z,69.65
2018-02-08T21:52:26.954Z,74.68
2018-02-08T21:54:54.415Z,70.40
2018-02-08T21:57:21.896Z,73.53
2018-02-08T21:59:49.355Z,74.80
2018-02-08T22:02:17.595Z,71.05
2018-02-08T22:04:45.069Z,73.18
2018-02-08T22:07:12.620Z,73.20
2018-02-08T22:09:40.109Z,70.72
2018-02-08T22:12:08.362Z,73.97
2018-02-08T22:14:36.686Z,70.75
2018-02-08T22:17:04.893Z,81.40
2018-02-08T22:19:32.373Z,88.60
2018-02-08T22:21:59.949Z,71.50
2018-02-08T22:24:27.429Z,78.07
2018-02-08T22:26:55.711Z,79.07
2018-02-08T22:29:23.242Z,77.37
2018-02-08T22:31:50.700Z,76.65
2018-02-08T22:34:18.948Z,77.85
2018-02-08T22:36:46.412Z,73.00
2018-02-08T22:39:15.041Z,74.62
2018-02-08T22:41:42.552Z,71.15
2018-02-08T22:44:10.217Z,81.20
2018-02-08T22:46:37.713Z,79.18
2018-02-08T22:49:05.225Z,73.65
2018-02-08T22:51:32.689Z,75.97
2018-02-08T22:54:00.155Z,82.03
2018-02-08T22:56:28.417Z,79.97
2018-02-08T22:58:55.880Z,77.43
2018-02-08T23:01:24.120Z,81.78
2018-02-08T23:03:51.615Z,84.37
2018-02-08T23:06:19.881Z,80.15
2018-02-08T23:08:47.351Z,79.68
2018-02-08T23:11:15.589Z,71.60
2018-02-08T23:13:43.061Z,78.30
2018-02-08T23:16:10.629Z,77.18
2018-02-08T23:18:38.117Z,86.37
2018-02-08T23:21:05.635Z,70.55
2018-02-08T23:23:33.888Z,76.07
2018-02-08T23:26:01.472Z,86.80
2018-02-08T23:28:28.985Z,68.72
2018-02-08T23:30:56.467Z,68.55
2018-02-08T23:33:23.945Z,77.07
2018-02-08T23:35:51.408Z,69.07
2018-02-08T23:38:18.886Z,73.47
2018-02-08T23:40:46.423Z,66.85
2018-02-08T23:43:13.986Z,71.05
2018-02-08T23:45:42.262Z,71.60
2018-02-08T23:48:09.742Z,73.45
2018-02-08T23:50:37.979Z,87.22
2018-02-08T23:53:05.457Z,74.55
2018-02-08T23:55:32.907Z,80.40
2018-02-08T23:58:01.144Z,72.22
